createdAt,value
2023-02-13T00:00:38.639Z,1032.73
2023-02-13T00:01:38.634Z,1032.73
2023-02-13T00:02:38.685Z,1032.74
2023-02-13T00:03:38.691Z,1032.74
2023-02-13T00:04:38.624Z,1032.75
2023-02-13T00:05:38.616Z,1032.71
2023-02-13T00:06:38.623Z,1032.72
2023-02-13T00:07:38.634Z,1032.70
2023-02-13T00:08:38.636Z,1032.71
2023-02-13T00:09:38.616Z,1032.72
2023-02-13T00:10:38.617Z,1032.67
2023-02-13T00:11:38.613Z,1032.68
2023-02-13T00:12:38.617Z,1032.65
2023-02-13T00:13:38.597Z,1032.70
2023-02-13T00:14:38.603Z,1032.71
2023-02-13T00:15:38.676Z,1032.72
2023-02-13T00:16:38.596Z,1032.72
2023-02-13T00:17:38.590Z,1032.71
2023-02-13T00:18:38.593Z,1032.71
2023-02-13T00:19:38.584Z,1032.74
2023-02-13T00:20:38.603Z,1032.70
2023-02-13T00:21:38.588Z,1032.75
2023-02-13T00:22:38.581Z,1032.69
2023-02-13T00:23:38.580Z,1032.72
2023-02-13T00:24:38.586Z,1032.69
2023-02-13T00:25:38.575Z,1032.68
2023-02-13T00:26:38.587Z,1032.73
2023-02-13T00:27:38.567Z,1032.73
2023-02-13T00:28:38.646Z,1032.74
2023-02-13T00:29:38.589Z,1032.68
2023-02-13T00:30:38.569Z,1032.74
2023-02-13T00:31:38.688Z,1032.75
2023-02-13T00:32:38.554Z,1032.78
2023-02-13T00:33:38.549Z,1032.79
2023-02-13T00:34:38.581Z,1032.77
2023-02-13T00:35:38.543Z,1032.78
2023-02-13T00:36:38.560Z,1032.74
2023-02-13T00:37:38.546Z,1032.76
2023-02-13T00:38:38.550Z,1032.73
2023-02-13T00:39:38.538Z,1032.74
2023-02-13T00:40:38.536Z,1032.74
2023-02-13T00:41:38.537Z,1032.73
2023-02-13T00:42:38.534Z,1032.74
2023-02-13T00:43:38.542Z,1032.75
2023-02-13T00:44:38.524Z,1032.76
2023-02-13T00:45:38.524Z,1032.79
2023-02-13T00:46:38.586Z,1032.72
2023-02-13T00:47:38.574Z,1032.71
2023-02-13T00:48:38.513Z,1032.74
2023-02-13T00:49:38.521Z,1032.76
2023-02-13T00:50:38.512Z,1032.79
2023-02-13T00:51:38.512Z,1032.78
2023-02-13T00:52:38.506Z,1032.73
2023-02-13T00:53:38.522Z,1032.76
2023-02-13T00:54:38.503Z,1032.79
2023-02-13T00:55:38.501Z,1032.77
2023-02-13T00:56:38.497Z,1032.76
2023-02-13T00:57:38.509Z,1032.73
2023-02-13T00:58:38.548Z,1032.76
2023-02-13T00:59:38.492Z,1032.74
2023-02-13T01:00:38.487Z,1032.73
2023-02-13T01:01:38.528Z,1032.71
2023-02-13T01:02:38.484Z,1032.70
2023-02-13T01:03:38.539Z,1032.71
2023-02-13T01:04:38.488Z,1032.74
2023-02-13T01:05:38.489Z,1032.76
2023-02-13T01:06:38.478Z,1032.75
2023-02-13T01:07:38.478Z,1032.73
2023-02-13T01:08:38.472Z,1032.78
2023-02-13T01:09:38.506Z,1032.80
2023-02-13T01:10:38.478Z,1032.84
2023-02-13T01:11:38.472Z,1032.82
2023-02-13T01:12:38.463Z,1032.82
2023-02-13T01:13:38.463Z,1032.82
2023-02-13T01:14:38.461Z,1032.87
2023-02-13T01:15:38.505Z,1032.81
2023-02-13T01:16:38.458Z,1032.85
2023-02-13T01:17:38.457Z,1032.82
2023-02-13T01:18:38.450Z,1032.80
2023-02-13T01:19:38.480Z,1032.77
2023-02-13T01:20:38.450Z,1032.81
2023-02-13T01:21:38.448Z,1032.75
2023-02-13T01:22:38.443Z,1032.76
2023-02-13T01:23:38.453Z,1032.81
2023-02-13T01:24:38.439Z,1032.75
2023-02-13T01:25:38.440Z,1032.78
2023-02-13T01:26:38.447Z,1032.74
2023-02-13T01:27:38.434Z,1032.72
2023-02-13T01:28:38.462Z,1032.69
2023-02-13T01:29:38.432Z,1032.73
2023-02-13T01:30:38.516Z,1032.73
2023-02-13T01:31:38.588Z,1032.71
2023-02-13T01:32:38.431Z,1032.76
2023-02-13T01:33:38.426Z,1032.75
2023-02-13T01:34:38.420Z,1032.69
2023-02-13T01:35:38.443Z,1032.70
2023-02-13T01:36:38.415Z,1032.75
2023-02-13T01:37:38.414Z,1032.70
2023-02-13T01:38:38.413Z,1032.70
2023-02-13T01:39:38.408Z,1032.72
2023-02-13T01:40:38.404Z,1032.70
2023-02-13T01:41:38.401Z,1032.73
2023-02-13T01:42:38.400Z,1032.71
2023-02-13T01:43:38.400Z,1032.76
2023-02-13T01:44:38.392Z,1032.72
2023-02-13T01:45:38.395Z,1032.72
2023-02-13T01:46:38.444Z,1032.65
2023-02-13T01:47:38.387Z,1032.64
2023-02-13T01:48:38.400Z,1032.60
2023-02-13T01:49:38.384Z,1032.60
2023-02-13T01:50:38.378Z,1032.63
2023-02-13T01:51:38.410Z,1032.56
2023-02-13T01:52:38.374Z,1032.62
2023-02-13T01:53:38.373Z,1032.62
2023-02-13T01:54:38.374Z,1032.64
2023-02-13T01:55:38.370Z,1032.69
2023-02-13T01:56:38.366Z,1032.67
2023-02-13T01:57:38.370Z,1032.70
2023-02-13T01:58:38.360Z,1032.71
2023-02-13T01:59:38.357Z,1032.71
2023-02-13T02:00:38.357Z,1032.70
2023-02-13T02:01:38.500Z,1032.69
2023-02-13T02:02:38.425Z,1032.66
2023-02-13T02:03:38.348Z,1032.72
2023-02-13T02:04:38.346Z,1032.67
2023-02-13T02:05:38.345Z,1032.67
2023-02-13T02:06:38.339Z,1032.66
2023-02-13T02:07:38.374Z,1032.66
2023-02-13T02:08:38.336Z,1032.71
2023-02-13T02:09:38.338Z,1032.67
2023-02-13T02:10:38.331Z,1032.60
2023-02-13T02:11:38.331Z,1032.65
2023-02-13T02:12:38.351Z,1032.65
2023-02-13T02:13:38.330Z,1032.66
2023-02-13T02:14:38.334Z,1032.62
2023-02-13T02:15:38.329Z,1032.66
2023-02-13T02:16:38.320Z,1032.66
2023-02-13T02:17:38.323Z,1032.67
2023-02-13T02:18:38.320Z,1032.65
2023-02-13T02:19:38.320Z,1032.69
2023-02-13T02:20:38.312Z,1032.74
2023-02-13T02:21:38.312Z,1032.66
2023-02-13T02:22:38.309Z,1032.70
2023-02-13T02:23:38.338Z,1032.72
2023-02-13T02:24:38.318Z,1032.69
2023-02-13T02:25:38.305Z,1032.72
2023-02-13T02:26:38.302Z,1032.69
2023-02-13T02:27:38.303Z,1032.72
2023-02-13T02:28:38.391Z,1032.71
2023-02-13T02:29:38.297Z,1032.67
2023-02-13T02:30:38.347Z,1032.72
2023-02-13T02:31:38.379Z,1032.74
2023-02-13T02:32:38.301Z,1032.72
2023-02-13T02:33:38.290Z,1032.72
2023-02-13T02:34:38.291Z,1032.74
2023-02-13T02:35:38.286Z,1032.78
2023-02-13T02:36:38.288Z,1032.80
2023-02-13T02:37:38.291Z,1032.80
2023-02-13T02:38:38.277Z,1032.80
2023-02-13T02:39:38.300Z,1032.78
2023-02-13T02:40:38.272Z,1032.78
2023-02-13T02:41:38.272Z,1032.80
2023-02-13T02:42:38.266Z,1032.79
2023-02-13T02:43:38.270Z,1032.77
2023-02-13T02:44:38.268Z,1032.81
2023-02-13T02:45:38.264Z,1032.82
2023-02-13T02:46:38.264Z,1032.85
2023-02-13T02:47:38.251Z,1032.83
2023-02-13T02:48:38.274Z,1032.81
2023-02-13T02:49:38.253Z,1032.84
2023-02-13T02:50:38.248Z,1032.85
2023-02-13T02:51:38.259Z,1032.82
2023-02-13T02:52:38.236Z,1032.82
2023-02-13T02:53:38.241Z,1032.82
2023-02-13T02:54:38.238Z,1032.84
2023-02-13T02:55:38.261Z,1032.84
2023-02-13T02:56:38.260Z,1032.84
2023-02-13T02:57:38.235Z,1032.86
2023-02-13T02:58:38.230Z,1032.84
2023-02-13T02:59:38.230Z,1032.84
2023-02-13T03:00:38.249Z,1032.83
2023-02-13T03:01:38.223Z,1032.80
2023-02-13T03:02:38.212Z,1032.80
2023-02-13T03:03:38.217Z,1032.78
2023-02-13T03:04:38.212Z,1032.73
2023-02-13T03:05:38.223Z,1032.73
2023-02-13T03:06:38.207Z,1032.75
2023-02-13T03:07:38.202Z,1032.76
2023-02-13T03:08:38.215Z,1032.71
2023-02-13T03:09:38.199Z,1032.74
2023-02-13T03:10:38.197Z,1032.77
2023-02-13T03:11:38.218Z,1032.77
2023-02-13T03:12:38.193Z,1032.73
2023-02-13T03:13:38.191Z,1032.70
2023-02-13T03:14:38.188Z,1032.73
2023-02-13T03:15:38.188Z,1032.69
2023-02-13T03:16:38.244Z,1032.74
2023-02-13T03:17:38.191Z,1032.77
2023-02-13T03:18:38.179Z,1032.76
2023-02-13T03:19:38.173Z,1032.79
2023-02-13T03:20:38.168Z,1032.78
2023-02-13T03:21:38.174Z,1032.80
2023-02-13T03:22:38.166Z,1032.77
2023-02-13T03:23:38.166Z,1032.76
2023-02-13T03:24:38.180Z,1032.79
2023-02-13T03:25:38.162Z,1032.80
2023-02-13T03:26:38.156Z,1032.76
2023-02-13T03:27:38.181Z,1032.75
2023-02-13T03:28:38.238Z,1032.78
2023-02-13T03:29:38.160Z,1032.81
2023-02-13T03:30:38.162Z,1032.79
2023-02-13T03:31:38.203Z,1032.80
2023-02-13T03:32:38.146Z,1032.80
2023-02-13T03:33:38.153Z,1032.82
2023-02-13T03:34:38.140Z,1032.85
2023-02-13T03:35:38.146Z,1032.79
2023-02-13T03:36:38.133Z,1032.80
2023-02-13T03:37:38.138Z,1032.83
2023-02-13T03:38:38.128Z,1032.77
2023-02-13T03:39:38.129Z,1032.76
2023-02-13T03:40:38.123Z,1032.73
2023-02-13T03:41:38.129Z,1032.81
2023-02-13T03:42:38.123Z,1032.76
2023-02-13T03:43:38.149Z,1032.80
2023-02-13T03:44:38.114Z,1032.78
2023-02-13T03:45:38.177Z,1032.77
2023-02-13T03:46:38.118Z,1032.74
2023-02-13T03:47:38.114Z,1032.71
2023-02-13T03:48:38.132Z,1032.75
2023-02-13T03:49:38.109Z,1032.73
2023-02-13T03:50:38.101Z,1032.76
2023-02-13T03:51:38.103Z,1032.72
2023-02-13T03:52:38.095Z,1032.73
2023-02-13T03:53:38.096Z,1032.70
2023-02-13T03:54:38.091Z,1032.74
2023-02-13T03:55:38.096Z,1032.72
2023-02-13T03:56:38.084Z,1032.75
2023-02-13T03:57:38.087Z,1032.72
2023-02-13T03:58:38.090Z,1032.70
2023-02-13T03:59:38.115Z,1032.72
2023-02-13T04:00:38.085Z,1032.71
2023-02-13T04:01:38.079Z,1032.71
2023-02-13T04:02:38.093Z,1032.72
2023-02-13T04:03:38.082Z,1032.71
2023-02-13T04:04:38.072Z,1032.70
2023-02-13T04:05:38.067Z,1032.69
2023-02-13T04:06:38.062Z,1032.73
2023-02-13T04:07:38.062Z,1032.68
2023-02-13T04:08:38.058Z,1032.71
2023-02-13T04:09:38.054Z,1032.69
2023-02-13T04:10:38.055Z,1032.70
2023-02-13T04:11:38.050Z,1032.68
2023-02-13T04:12:38.043Z,1032.65
2023-02-13T04:13:38.043Z,1032.65
2023-02-13T04:14:38.040Z,1032.64
2023-02-13T04:15:38.077Z,1032.62
2023-02-13T04:16:38.078Z,1032.63
2023-02-13T04:17:38.037Z,1032.62
2023-02-13T04:18:38.033Z,1032.62
2023-02-13T04:19:38.031Z,1032.61
2023-02-13T04:20:38.022Z,1032.60
2023-02-13T04:21:38.029Z,1032.63
2023-02-13T04:22:38.024Z,1032.62
2023-02-13T04:23:38.025Z,1032.61
2023-02-13T04:24:38.012Z,1032.61
2023-02-13T04:25:38.012Z,1032.64
2023-02-13T04:26:38.007Z,1032.64
2023-02-13T04:27:38.009Z,1032.60
2023-02-13T04:28:38.101Z,1032.61
2023-02-13T04:29:38.012Z,1032.61
2023-02-13T04:30:38.131Z,1032.62
2023-02-13T04:31:38.228Z,1032.67
2023-02-13T04:32:38.005Z,1032.61
2023-02-13T04:33:37.999Z,1032.60
2023-02-13T04:34:37.988Z,1032.58
2023-02-13T04:35:37.998Z,1032.60
2023-02-13T04:36:37.986Z,1032.64
2023-02-13T04:37:38.002Z,1032.62
2023-02-13T04:38:37.981Z,1032.56
2023-02-13T04:39:37.983Z,1032.60
2023-02-13T04:40:37.987Z,1032.59
2023-02-13T04:41:37.976Z,1032.56
2023-02-13T04:42:37.976Z,1032.59
2023-02-13T04:43:37.972Z,1032.57
2023-02-13T04:44:37.968Z,1032.52
2023-02-13T04:45:37.994Z,1032.57
2023-02-13T04:46:37.971Z,1032.55
2023-02-13T04:47:37.993Z,1032.48
2023-02-13T04:48:38.960Z,1032.49
2023-02-13T04:49:37.959Z,1032.46
2023-02-13T04:50:37.958Z,1032.45
2023-02-13T04:51:37.957Z,1032.49
2023-02-13T04:52:37.949Z,1032.44
2023-02-13T04:53:37.964Z,1032.43
2023-02-13T04:54:37.944Z,1032.45
2023-02-13T04:55:37.970Z,1032.42
2023-02-13T04:56:37.947Z,1032.44
2023-02-13T04:57:37.940Z,1032.44
2023-02-13T04:58:37.944Z,1032.44
2023-02-13T04:59:37.933Z,1032.48
2023-02-13T05:00:37.950Z,1032.47
2023-02-13T05:01:37.956Z,1032.47
2023-02-13T05:02:39.557Z,1032.49
2023-02-13T05:03:37.948Z,1032.49
2023-02-13T05:04:37.942Z,1032.48
2023-02-13T05:05:37.916Z,1032.50
2023-02-13T05:06:37.920Z,1032.46
2023-02-13T05:07:37.913Z,1032.44
2023-02-13T05:08:37.919Z,1032.44
2023-02-13T05:09:39.534Z,1032.47
2023-02-13T05:10:37.909Z,1032.47
2023-02-13T05:11:37.901Z,1032.46
2023-02-13T05:12:37.921Z,1032.51
2023-02-13T05:13:37.896Z,1032.51
2023-02-13T05:14:37.899Z,1032.53
2023-02-13T05:15:37.914Z,1032.59
2023-02-13T05:16:37.892Z,1032.56
2023-02-13T05:17:37.886Z,1032.61
2023-02-13T05:18:37.890Z,1032.61
2023-02-13T05:19:37.904Z,1032.67
2023-02-13T05:20:37.882Z,1032.62
2023-02-13T05:21:37.878Z,1032.66
2023-02-13T05:22:37.876Z,1032.64
2023-02-13T05:23:37.870Z,1032.64
2023-02-13T05:24:37.869Z,1032.61
2023-02-13T05:25:37.865Z,1032.64
2023-02-13T05:26:37.873Z,1032.64
2023-02-13T05:27:37.858Z,1032.64
2023-02-13T05:28:37.939Z,1032.65
2023-02-13T05:29:37.857Z,1032.59
2023-02-13T05:30:37.951Z,1032.62
2023-02-13T05:31:38.012Z,1032.56
2023-02-13T05:32:37.858Z,1032.58
2023-02-13T05:33:37.846Z,1032.64
2023-02-13T05:34:37.848Z,1032.59
2023-02-13T05:35:37.868Z,1032.60
2023-02-13T05:36:37.852Z,1032.60
2023-02-13T05:37:37.836Z,1032.60
2023-02-13T05:38:37.835Z,1032.60
2023-02-13T05:39:37.835Z,1032.62
2023-02-13T05:40:37.842Z,1032.59
2023-02-13T05:41:37.835Z,1032.65
2023-02-13T05:42:37.828Z,1032.60
2023-02-13T05:43:37.822Z,1032.54
2023-02-13T05:44:37.825Z,1032.59
2023-02-13T05:45:37.818Z,1032.59
2023-02-13T05:46:39.118Z,1032.61
2023-02-13T05:47:37.815Z,1032.62
2023-02-13T05:48:37.818Z,1032.62
2023-02-13T05:49:37.810Z,1032.64
2023-02-13T05:50:37.810Z,1032.64
2023-02-13T05:51:37.825Z,1032.64
2023-02-13T05:52:37.803Z,1032.65
2023-02-13T05:53:37.811Z,1032.65
2023-02-13T05:54:37.799Z,1032.73
2023-02-13T05:55:37.791Z,1032.70
2023-02-13T05:56:37.799Z,1032.70
2023-02-13T05:57:37.788Z,1032.72
2023-02-13T05:58:37.799Z,1032.74
2023-02-13T05:59:37.780Z,1032.79
2023-02-13T06:00:37.781Z,1032.79
2023-02-13T06:01:37.774Z,1032.80
2023-02-13T06:02:37.813Z,1032.81
2023-02-13T06:03:37.830Z,1032.78
2023-02-13T06:04:37.770Z,1032.75
2023-02-13T06:05:37.764Z,1032.77
2023-02-13T06:06:37.762Z,1032.78
2023-02-13T06:07:37.787Z,1032.82
2023-02-13T06:08:37.759Z,1032.80
2023-02-13T06:09:37.751Z,1032.80
2023-02-13T06:10:37.769Z,1032.83
2023-02-13T06:11:37.745Z,1032.81
2023-02-13T06:12:37.752Z,1032.85
2023-02-13T06:13:37.748Z,1032.83
2023-02-13T06:14:37.744Z,1032.85
2023-02-13T06:15:37.807Z,1032.85
2023-02-13T06:16:37.736Z,1032.87
2023-02-13T06:17:37.733Z,1032.91
2023-02-13T06:18:37.741Z,1032.93
2023-02-13T06:19:37.732Z,1032.90
2023-02-13T06:20:37.732Z,1032.89
2023-02-13T06:21:37.719Z,1032.95
2023-02-13T06:22:37.718Z,1032.92
2023-02-13T06:23:37.748Z,1032.95
2023-02-13T06:24:37.721Z,1032.91
2023-02-13T06:25:37.713Z,1032.92
2023-02-13T06:26:37.712Z,1032.95
2023-02-13T06:27:37.705Z,1032.91
2023-02-13T06:28:37.844Z,1032.95
2023-02-13T06:29:37.699Z,1032.94
2023-02-13T06:30:37.725Z,1032.97
2023-02-13T06:31:37.758Z,1032.96
2023-02-13T06:32:37.706Z,1032.94
2023-02-13T06:33:37.697Z,1032.97
2023-02-13T06:34:37.690Z,1032.94
2023-02-13T06:35:37.692Z,1032.94
2023-02-13T06:36:37.726Z,1032.92
2023-02-13T06:37:37.685Z,1032.90
2023-02-13T06:38:37.685Z,1032.92
2023-02-13T06:39:37.702Z,1032.90
2023-02-13T06:40:37.677Z,1032.90
2023-02-13T06:41:37.670Z,1032.90
2023-02-13T06:42:37.684Z,1032.94
2023-02-13T06:43:39.819Z,1032.94
2023-02-13T06:44:37.675Z,1032.97
2023-02-13T06:45:37.666Z,1033.00
2023-02-13T06:46:37.718Z,1033.05
2023-02-13T06:47:37.658Z,1033.01
2023-02-13T06:48:37.666Z,1033.06
2023-02-13T06:49:37.651Z,1032.99
2023-02-13T06:50:37.654Z,1033.02
2023-02-13T06:51:37.648Z,1033.03
2023-02-13T06:52:37.644Z,1033.11
2023-02-13T06:53:37.643Z,1033.10
2023-02-13T06:54:47.232Z,1033.13
2023-02-13T06:55:37.659Z,1033.09
2023-02-13T06:56:37.633Z,1033.10
2023-02-13T06:57:37.632Z,1033.13
2023-02-13T06:58:37.633Z,1033.11
2023-02-13T06:59:37.625Z,1033.11
2023-02-13T07:00:37.671Z,1033.12
2023-02-13T07:01:37.615Z,1033.10
2023-02-13T07:02:37.680Z,1033.14
2023-02-13T07:03:37.614Z,1033.15
2023-02-13T07:04:37.648Z,1033.19
2023-02-13T07:05:37.620Z,1033.19
2023-02-13T07:06:37.610Z,1033.20
2023-02-13T07:07:37.617Z,1033.13
2023-02-13T07:08:37.609Z,1033.18
2023-02-13T07:09:37.600Z,1033.18
2023-02-13T07:10:37.599Z,1033.15
2023-02-13T07:11:37.614Z,1033.16
2023-02-13T07:12:37.596Z,1033.18
2023-02-13T07:13:37.587Z,1033.21
2023-02-13T07:14:37.592Z,1033.20
2023-02-13T07:15:37.601Z,1033.20
2023-02-13T07:16:37.587Z,1033.17
2023-02-13T07:17:37.580Z,1033.21
2023-02-13T07:18:38.581Z,1033.19
2023-02-13T07:19:37.574Z,1033.18
2023-02-13T07:20:37.582Z,1033.16
2023-02-13T07:21:37.574Z,1033.16
2023-02-13T07:22:37.567Z,1033.21
2023-02-13T07:23:37.566Z,1033.23
2023-02-13T07:24:37.574Z,1033.20
2023-02-13T07:25:37.558Z,1033.23
2023-02-13T07:26:37.596Z,1033.22
2023-02-13T07:27:37.578Z,1033.22
2023-02-13T07:28:37.604Z,1033.29
2023-02-13T07:29:37.547Z,1033.28
2023-02-13T07:30:37.609Z,1033.28
2023-02-13T07:31:37.613Z,1033.28
2023-02-13T07:32:37.549Z,1033.32
2023-02-13T07:33:37.546Z,1033.37
2023-02-13T07:34:37.539Z,1033.37
2023-02-13T07:35:37.537Z,1033.32
2023-02-13T07:36:37.537Z,1033.31
2023-02-13T07:37:37.530Z,1033.32
2023-02-13T07:38:37.531Z,1033.30
2023-02-13T07:39:37.526Z,1033.33
2023-02-13T07:40:37.527Z,1033.35
2023-02-13T07:41:37.522Z,1033.37
2023-02-13T07:42:37.531Z,1033.36
2023-02-13T07:43:37.547Z,1033.36
2023-02-13T07:44:37.521Z,1033.34
2023-02-13T07:45:37.511Z,1033.32
2023-02-13T07:46:37.606Z,1033.36
2023-02-13T07:47:37.517Z,1033.38
2023-02-13T07:48:37.523Z,1033.35
2023-02-13T07:49:37.506Z,1033.36
2023-02-13T07:50:37.508Z,1033.40
2023-02-13T07:51:37.501Z,1033.40
2023-02-13T07:52:37.505Z,1033.41
2023-02-13T07:53:37.496Z,1033.39
2023-02-13T07:54:37.498Z,1033.34
2023-02-13T07:55:37.491Z,1033.37
2023-02-13T07:56:37.490Z,1033.39
2023-02-13T07:57:37.487Z,1033.38
2023-02-13T07:58:37.505Z,1033.37
2023-02-13T07:59:37.508Z,1033.41
2023-02-13T08:00:37.486Z,1033.41
2023-02-13T08:01:37.501Z,1033.40
2023-02-13T08:02:37.494Z,1033.41
2023-02-13T08:03:37.525Z,1033.41
2023-02-13T08:04:37.471Z,1033.44
2023-02-13T08:05:37.468Z,1033.44
2023-02-13T08:06:37.466Z,1033.48
2023-02-13T08:07:37.461Z,1033.45
2023-02-13T08:08:37.468Z,1033.45
2023-02-13T08:09:38.965Z,1033.45
2023-02-13T08:10:37.459Z,1033.48
2023-02-13T08:11:37.448Z,1033.42
2023-02-13T08:12:37.459Z,1033.44
2023-02-13T08:13:37.444Z,1033.46
2023-02-13T08:14:37.447Z,1033.46
2023-02-13T08:15:37.466Z,1033.49
2023-02-13T08:16:37.475Z,1033.42
2023-02-13T08:17:37.441Z,1033.52
2023-02-13T08:18:37.460Z,1033.51
2023-02-13T08:19:37.430Z,1033.48
2023-02-13T08:20:37.432Z,1033.44
2023-02-13T08:21:37.424Z,1033.44
2023-02-13T08:22:37.426Z,1033.39
2023-02-13T08:23:37.526Z,1033.42
2023-02-13T08:24:37.422Z,1033.41
2023-02-13T08:25:37.413Z,1033.40
2023-02-13T08:26:37.429Z,1033.47
2023-02-13T08:27:37.412Z,1033.42
2023-02-13T08:28:37.529Z,1033.44
2023-02-13T08:29:37.410Z,1033.44
2023-02-13T08:30:37.436Z,1033.41
2023-02-13T08:31:37.457Z,1033.43
2023-02-13T08:32:53.085Z,1033.45
2023-02-13T08:33:37.396Z,1033.48
2023-02-13T08:34:37.433Z,1033.52
2023-02-13T08:35:37.390Z,1033.47
2023-02-13T08:36:37.385Z,1033.47
2023-02-13T08:37:37.390Z,1033.47
2023-02-13T08:38:37.388Z,1033.41
2023-02-13T08:39:37.389Z,1033.44
2023-02-13T08:40:37.385Z,1033.38
2023-02-13T08:41:37.377Z,1033.39
2023-02-13T08:42:37.377Z,1033.43
2023-02-13T08:43:37.385Z,1033.41
2023-02-13T08:44:37.376Z,1033.41
2023-02-13T08:45:37.441Z,1033.42
2023-02-13T08:46:37.464Z,1033.41
2023-02-13T08:47:37.391Z,1033.43
2023-02-13T08:48:37.363Z,1033.43
2023-02-13T08:49:37.361Z,1033.44
2023-02-13T08:50:37.406Z,1033.42
2023-02-13T08:51:37.352Z,1033.39
2023-02-13T08:52:37.377Z,1033.38
2023-02-13T08:53:37.364Z,1033.38
2023-02-13T08:54:37.374Z,1033.40
2023-02-13T08:55:37.351Z,1033.45
2023-02-13T08:56:37.342Z,1033.41
2023-02-13T08:57:37.336Z,1033.41
2023-02-13T08:58:37.342Z,1033.42
2023-02-13T08:59:37.335Z,1033.41
2023-02-13T09:00:37.336Z,1033.43
2023-02-13T09:01:37.428Z,1033.42
2023-02-13T09:02:37.392Z,1033.43
2023-02-13T09:03:37.347Z,1033.48
2023-02-13T09:04:37.336Z,1033.43
2023-02-13T09:05:37.324Z,1033.45
2023-02-13T09:06:37.323Z,1033.44
2023-02-13T09:07:37.311Z,1033.50
2023-02-13T09:08:37.320Z,1033.49
2023-02-13T09:09:37.307Z,1033.53
2023-02-13T09:10:37.312Z,1033.52
2023-02-13T09:11:37.308Z,1033.54
2023-02-13T09:12:37.308Z,1033.56
2023-02-13T09:13:37.324Z,1033.52
2023-02-13T09:14:37.305Z,1033.51
2023-02-13T09:15:37.308Z,1033.55
2023-02-13T09:16:37.377Z,1033.51
2023-02-13T09:17:37.301Z,1033.52
2023-02-13T09:18:37.310Z,1033.57
2023-02-13T09:19:37.326Z,1033.55
2023-02-13T09:20:37.286Z,1033.55
2023-02-13T09:21:37.293Z,1033.57
2023-02-13T09:22:37.286Z,1033.58
2023-02-13T09:23:37.291Z,1033.62
2023-02-13T09:24:37.281Z,1033.61
2023-02-13T09:25:37.283Z,1033.59
2023-02-13T09:26:37.287Z,1033.58
2023-02-13T09:27:37.285Z,1033.57
2023-02-13T09:28:37.363Z,1033.62
2023-02-13T09:29:37.278Z,1033.62
2023-02-13T09:30:37.284Z,1033.63
2023-02-13T09:31:37.454Z,1033.62
2023-02-13T09:32:37.269Z,1033.60
2023-02-13T09:33:37.271Z,1033.59
2023-02-13T09:34:37.264Z,1033.61
2023-02-13T09:35:37.277Z,1033.62
2023-02-13T09:36:37.258Z,1033.65
2023-02-13T09:37:37.262Z,1033.63
2023-02-13T09:38:37.256Z,1033.64
2023-02-13T09:39:37.251Z,1033.63
2023-02-13T09:40:37.253Z,1033.66
2023-02-13T09:41:37.256Z,1033.62
2023-02-13T09:42:37.249Z,1033.65
2023-02-13T09:43:37.255Z,1033.63
2023-02-13T09:44:37.254Z,1033.66
2023-02-13T09:45:37.247Z,1033.63
2023-02-13T09:46:37.359Z,1033.67
2023-02-13T09:47:37.258Z,1033.63
2023-02-13T09:48:37.266Z,1033.64
2023-02-13T09:49:37.242Z,1033.64
2023-02-13T09:50:37.232Z,1033.57
2023-02-13T09:51:37.257Z,1033.62
2023-02-13T09:52:37.234Z,1033.58
2023-02-13T09:53:37.220Z,1033.62
2023-02-13T09:54:37.223Z,1033.56
2023-02-13T09:55:37.286Z,1033.56
2023-02-13T09:56:37.218Z,1033.56
2023-02-13T09:57:37.228Z,1033.54
2023-02-13T09:58:37.206Z,1033.50
2023-02-13T09:59:37.227Z,1033.51
2023-02-13T10:00:37.203Z,1033.51
2023-02-13T10:01:37.270Z,1033.53
2023-02-13T10:02:37.212Z,1033.50
2023-02-13T10:03:37.218Z,1033.54
2023-02-13T10:04:37.247Z,1033.53
2023-02-13T10:05:37.203Z,1033.56
2023-02-13T10:06:37.192Z,1033.53
2023-02-13T10:07:37.223Z,1033.56
2023-02-13T10:08:37.191Z,1033.55
2023-02-13T10:09:37.206Z,1033.57
2023-02-13T10:10:37.183Z,1033.59
2023-02-13T10:11:37.188Z,1033.61
2023-02-13T10:12:37.179Z,1033.62
2023-02-13T10:13:37.191Z,1033.60
2023-02-13T10:14:37.184Z,1033.64
2023-02-13T10:15:37.222Z,1033.64
2023-02-13T10:16:37.171Z,1033.66
2023-02-13T10:17:37.175Z,1033.65
2023-02-13T10:18:37.160Z,1033.62
2023-02-13T10:19:37.170Z,1033.63
2023-02-13T10:20:37.167Z,1033.61
2023-02-13T10:21:37.166Z,1033.62
2023-02-13T10:22:37.166Z,1033.60
2023-02-13T10:23:37.188Z,1033.61
2023-02-13T10:24:37.154Z,1033.60
2023-02-13T10:25:37.153Z,1033.60
2023-02-13T10:26:37.156Z,1033.61
2023-02-13T10:27:37.157Z,1033.57
2023-02-13T10:28:37.201Z,1033.61
2023-02-13T10:29:37.146Z,1033.63
2023-02-13T10:30:37.141Z,1033.62
2023-02-13T10:31:37.281Z,1033.61
2023-02-13T10:32:37.138Z,1033.61
2023-02-13T10:33:37.146Z,1033.61
2023-02-13T10:34:37.141Z,1033.60
2023-02-13T10:35:37.134Z,1033.59
2023-02-13T10:36:37.154Z,1033.60
2023-02-13T10:37:37.133Z,1033.58
2023-02-13T10:38:37.124Z,1033.60
2023-02-13T10:39:37.156Z,1033.60
2023-02-13T10:40:37.122Z,1033.61
2023-02-13T10:41:37.132Z,1033.60
2023-02-13T10:42:37.121Z,1033.60
2023-02-13T10:43:37.117Z,1033.57
2023-02-13T10:44:37.116Z,1033.59
2023-02-13T10:45:37.116Z,1033.58
2023-02-13T10:46:37.172Z,1033.56
2023-02-13T10:47:37.120Z,1033.55
2023-02-13T10:48:37.110Z,1033.55
2023-02-13T10:49:37.108Z,1033.54
2023-02-13T10:50:37.104Z,1033.54
2023-02-13T10:51:37.104Z,1033.50
2023-02-13T10:52:37.101Z,1033.47
2023-02-13T10:53:37.101Z,1033.47
2023-02-13T10:54:37.096Z,1033.50
2023-02-13T10:55:37.140Z,1033.41
2023-02-13T10:56:37.101Z,1033.41
2023-02-13T10:57:37.100Z,1033.41
2023-02-13T10:58:37.089Z,1033.40
2023-02-13T10:59:37.102Z,1033.35
2023-02-13T11:00:37.087Z,1033.48
2023-02-13T11:01:37.105Z,1033.40
2023-02-13T11:02:37.079Z,1033.40
2023-02-13T11:03:37.086Z,1033.41
2023-02-13T11:04:37.115Z,1033.40
2023-02-13T11:05:37.078Z,1033.36
2023-02-13T11:06:37.071Z,1033.40
2023-02-13T11:07:39.292Z,1033.36
2023-02-13T11:08:37.065Z,1033.34
2023-02-13T11:09:37.069Z,1033.32
2023-02-13T11:10:37.061Z,1033.28
2023-02-13T11:11:37.111Z,1033.30
2023-02-13T11:12:37.058Z,1033.34
2023-02-13T11:13:37.060Z,1033.36
2023-02-13T11:14:37.051Z,1033.33
2023-02-13T11:15:37.058Z,1033.35
2023-02-13T11:16:37.063Z,1033.29
2023-02-13T11:17:37.047Z,1033.30
2023-02-13T11:18:37.042Z,1033.32
2023-02-13T11:19:37.059Z,1033.35
2023-02-13T11:20:37.040Z,1033.30
2023-02-13T11:21:37.050Z,1033.31
2023-02-13T11:22:37.039Z,1033.28
2023-02-13T11:23:37.037Z,1033.25
2023-02-13T11:24:37.037Z,1033.27
2023-02-13T11:25:37.035Z,1033.26
2023-02-13T11:26:37.027Z,1033.26
2023-02-13T11:27:37.116Z,1033.20
2023-02-13T11:28:37.207Z,1033.17
2023-02-13T11:29:37.039Z,1033.17
2023-02-13T11:30:37.053Z,1033.15
2023-02-13T11:31:37.239Z,1033.18
2023-02-13T11:32:37.022Z,1033.17
2023-02-13T11:33:37.035Z,1033.20
2023-02-13T11:34:37.030Z,1033.20
2023-02-13T11:35:37.039Z,1033.17
2023-02-13T11:36:37.036Z,1033.13
2023-02-13T11:37:37.074Z,1033.15
2023-02-13T11:38:37.056Z,1033.18
2023-02-13T11:39:37.041Z,1033.17
2023-02-13T11:40:37.027Z,1033.20
2023-02-13T11:41:37.037Z,1033.18
2023-02-13T11:42:37.232Z,1033.22
2023-02-13T11:43:37.119Z,1033.14
2023-02-13T11:44:37.015Z,1033.13
2023-02-13T11:45:36.999Z,1033.14
2023-02-13T11:46:37.090Z,1033.13
2023-02-13T11:47:37.079Z,1033.08
2023-02-13T11:48:37.038Z,1033.09
2023-02-13T11:49:36.992Z,1033.10
2023-02-13T11:50:36.992Z,1033.03
2023-02-13T11:51:37.000Z,1033.02
2023-02-13T11:52:37.007Z,1033.07
2023-02-13T11:53:37.046Z,1033.06
2023-02-13T11:54:37.035Z,1033.01
2023-02-13T11:55:37.013Z,1033.04
2023-02-13T11:56:40.320Z,1033.05
2023-02-13T11:57:36.987Z,1033.02
2023-02-13T11:58:37.030Z,1033.03
2023-02-13T11:59:37.009Z,1033.02
2023-02-13T12:00:36.977Z,1032.99
2023-02-13T12:01:36.985Z,1032.95
2023-02-13T12:02:37.052Z,1032.98
2023-02-13T12:03:37.079Z,1032.96
2023-02-13T12:04:36.974Z,1033.02
2023-02-13T12:05:36.981Z,1032.98